Time;durP1;ratioP1;P1;durP2;ratioP2;P2;SDS_P1;SDS_P2;PMS_P1;PMS_P2;Temp;Humidity;BMP_temperature;BMP_pressure;BME280_temperature;BME280_humidity;BME280_pressure;Samples;Min_cycle;Max_cycle;Signal;HPM_P1;HPM_P2
2021/10/04 00:00:22;;;;;;;0.10;0.10;;;;;;;10.52;100.00;98618.50;6292831;22;20356;-55
2021/10/04 00:03:25;;;;;;;1.00;0.57;;;;;;;10.57;100.00;98628.09;6273522;22;20251;-55
2021/10/04 00:06:28;;;;;;;0.13;0.13;;;;;;;10.61;100.00;98629.34;6292511;22;20022;-55
2021/10/04 00:09:31;;;;;;;5.57;1.67;;;;;;;10.75;100.00;98629.59;6292501;22;20652;-55
2021/10/04 00:12:34;;;;;;;6.25;1.33;;;;;;;10.71;100.00;98634.69;6292239;22;20033;-55
2021/10/04 00:15:38;;;;;;;0.20;0.20;;;;;;;10.60;100.00;98627.09;6292749;22;20261;-55
2021/10/04 00:18:41;;;;;;;0.75;0.25;;;;;;;10.50;100.00;98631.38;6291666;22;20030;-55
2021/10/04 00:21:44;;;;;;;1.02;0.57;;;;;;;10.37;100.00;98631.84;6292243;22;20615;-55
2021/10/04 00:24:47;;;;;;;0.25;0.22;;;;;;;10.26;100.00;98640.22;6292299;22;20212;-55
2021/10/04 00:27:50;;;;;;;0.20;0.20;;;;;;;10.16;100.00;98625.00;6292461;22;20356;-57
2021/10/04 00:30:54;;;;;;;9.38;0.50;;;;;;;10.21;100.00;98629.06;6294192;22;20022;-55
2021/10/04 00:33:57;;;;;;;0.32;0.30;;;;;;;10.13;100.00;98633.59;6294384;22;20025;-55
2021/10/04 00:37:00;;;;;;;1.08;0.70;;;;;;;10.07;100.00;98625.19;6292566;22;20454;-55
2021/10/04 00:40:08;;;;;;;0.52;0.30;;;;;;;10.08;100.00;98629.50;6293311;22;20081;-55
2021/10/04 00:43:11;;;;;;;0.68;0.60;;;;;;;9.99;100.00;98638.06;6294651;22;20441;-55
2021/10/04 00:46:14;;;;;;;3.25;0.80;;;;;;;10.01;100.00;98635.53;6292642;22;20013;-55
2021/10/04 00:49:17;;;;;;;0.28;0.28;;;;;;;9.94;100.00;98649.94;6338579;22;20036;-55
2021/10/04 00:52:20;;;;;;;8.40;0.38;;;;;;;9.92;100.00;98646.88;6338779;22;20029;-54
2021/10/04 00:55:23;;;;;;;0.77;0.30;;;;;;;9.93;100.00;98653.97;6337976;22;20405;-54
2021/10/04 00:58:26;;;;;;;8.02;0.82;;;;;;;9.93;100.00;98651.19;6338848;22;20346;-54
2021/10/04 01:01:30;;;;;;;0.25;0.15;;;;;;;9.89;100.00;98653.47;6339107;22;20022;-54
2021/10/04 01:04:34;;;;;;;4.13;0.57;;;;;;;9.80;100.00;98650.91;6338599;22;20098;-54
2021/10/04 01:07:37;;;;;;;2.85;0.68;;;;;;;9.67;100.00;98653.38;6339023;22;20029;-55
2021/10/04 01:10:41;;;;;;;0.10;0.10;;;;;;;9.59;100.00;98653.09;6338943;22;20080;-54
2021/10/04 01:13:44;;;;;;;1.17;0.50;;;;;;;9.50;100.00;98660.88;6320138;22;20029;-54
2021/10/04 01:16:48;;;;;;;3.28;0.43;;;;;;;9.43;100.00;98661.31;6338505;22;20478;-54
2021/10/04 01:19:51;;;;;;;0.20;0.20;;;;;;;9.40;100.00;98665.13;6320109;22;20092;-54
2021/10/04 01:22:56;;;;;;;0.30;0.30;;;;;;;9.49;100.00;98670.44;6338935;22;20072;-54
2021/10/04 01:26:00;;;;;;;1.27;0.28;;;;;;;9.69;100.00;98661.97;6339026;22;20030;-54
2021/10/04 01:29:04;;;;;;;0.15;0.15;;;;;;;9.76;100.00;98661.50;6338321;22;20025;-54
2021/10/04 01:32:07;;;;;;;0.10;0.10;;;;;;;9.83;100.00;98661.03;6338931;22;20071;-54
2021/10/04 01:35:11;;;;;;;2.22;0.73;;;;;;;9.87;100.00;98651.16;6338833;22;20076;-54
2021/10/04 01:38:14;;;;;;;0.20;0.20;;;;;;;9.93;100.00;98659.53;6339133;22;20022;-54
2021/10/04 01:41:18;;;;;;;12.60;0.63;;;;;;;9.86;100.00;98660.00;6338243;22;20136;-54
2021/10/04 01:44:21;;;;;;;0.10;0.10;;;;;;;9.79;100.00;98654.94;6338377;22;20072;-54
2021/10/04 01:47:24;;;;;;;0.22;0.22;;;;;;;9.71;100.00;98659.44;6338274;22;20021;-55
2021/10/04 01:50:32;;;;;;;0.20;0.20;;;;;;;9.60;100.00;98676.06;6338538;22;20340;-54
2021/10/04 01:53:36;;;;;;;0.40;0.40;;;;;;;9.53;100.00;98682.84;6338185;22;20076;-54
2021/10/04 01:56:40;;;;;;;0.10;0.10;;;;;;;9.53;100.00;98682.13;6338047;22;20098;-54
2021/10/04 01:59:43;;;;;;;4.55;0.65;;;;;;;9.32;100.00;98666.81;6338136;22;20473;-54
2021/10/04 02:02:50;;;;;;;0.20;0.20;;;;;;;9.46;100.00;98677.78;6338642;22;20358;-54
2021/10/04 02:05:52;;;;;;;0.10;0.10;;;;;;;9.39;100.00;98671.91;6337821;22;20036;-54
2021/10/04 02:08:56;;;;;;;0.65;0.40;;;;;;;9.40;100.00;98667.88;6338764;22;20025;-54
2021/10/04 02:12:00;;;;;;;2.85;1.90;;;;;;;9.43;100.00;98680.78;6338841;22;20049;-54
2021/10/04 02:15:04;;;;;;;1.25;0.65;;;;;;;9.47;100.00;98670.19;6338831;22;20080;-53
2021/10/04 02:18:09;;;;;;;0.43;0.43;;;;;;;9.52;100.00;98675.78;6338164;22;20051;-54
2021/10/04 02:21:13;;;;;;;0.40;0.20;;;;;;;9.52;100.00;98661.13;6319561;22;20021;-54
2021/10/04 02:24:17;;;;;;;2.42;0.60;;;;;;;9.55;100.00;98674.03;6338128;22;20075;-54
2021/10/04 02:27:20;;;;;;;0.13;0.13;;;;;;;9.67;100.00;98667.25;6338699;22;20053;-54
2021/10/04 02:30:24;;;;;;;0.73;0.73;;;;;;;9.74;100.00;98664.03;6338181;22;20041;-54
2021/10/04 02:33:27;;;;;;;0.30;0.30;;;;;;;9.89;100.00;98664.59;6338499;22;20025;-53
2021/10/04 02:36:30;;;;;;;0.20;0.20;;;;;;;9.83;100.00;98666.59;6338685;22;20087;-54
2021/10/04 02:39:33;;;;;;;0.30;0.30;;;;;;;9.81;100.00;98661.50;6338538;22;20139;-53
2021/10/04 02:42:37;;;;;;;0.30;0.28;;;;;;;9.85;100.00;98672.41;6338722;22;20026;-54
2021/10/04 02:45:40;;;;;;;0.30;0.20;;;;;;;9.85;100.00;98669.63;6321443;22;20030;-53
2021/10/04 02:48:43;;;;;;;2.40;0.40;;;;;;;9.81;100.00;98671.91;6340639;22;20021;-53
2021/10/04 02:51:46;;;;;;;6.53;0.80;;;;;;;9.75;100.00;98666.28;6340236;22;20067;-53
2021/10/04 02:54:49;;;;;;;4.90;1.05;;;;;;;9.78;100.00;98667.31;6340424;22;20067;-53
2021/10/04 02:57:52;;;;;;;0.40;0.30;;;;;;;9.70;100.00;98655.16;6340241;22;20065;-53
2021/10/04 03:00:54;;;;;;;0.13;0.13;;;;;;;9.68;100.00;98663.97;6321429;22;20025;-53
2021/10/04 03:03:57;;;;;;;0.30;0.30;;;;;;;9.63;100.00;98669.53;6340386;22;20021;-54
2021/10/04 03:07:00;;;;;;;2.65;0.30;;;;;;;9.50;100.00;98671.97;6339879;22;20515;-53
2021/10/04 03:10:04;;;;;;;16.00;0.75;;;;;;;9.50;100.00;98666.41;6340175;22;20018;-53
2021/10/04 03:13:07;;;;;;;3.35;0.32;;;;;;;9.55;100.00;98669.22;6340362;22;20049;-54
2021/10/04 03:16:10;;;;;;;1.13;0.20;;;;;;;9.55;100.00;98676.81;6339981;22;20107;-53
2021/10/04 03:19:13;;;;;;;0.65;0.40;;;;;;;9.46;100.00;98668.69;6339716;22;20446;-53
2021/10/04 03:22:16;;;;;;;0.70;0.63;;;;;;;9.35;100.00;98676.94;6339844;22;20025;-53
2021/10/04 03:25:18;;;;;;;13.00;1.17;;;;;;;9.33;100.00;98676.69;6340244;22;20024;-53
2021/10/04 03:28:21;;;;;;;0.22;0.22;;;;;;;9.30;100.00;98677.66;6339912;22;20442;-53
2021/10/04 03:31:24;;;;;;;0.55;0.55;;;;;;;9.39;100.00;98683.03;6339766;22;20395;-53
2021/10/04 03:34:27;;;;;;;0.10;0.10;;;;;;;9.44;100.00;98682.31;6339815;22;20024;-53
2021/10/04 03:37:30;;;;;;;0.20;0.20;;;;;;;9.57;100.00;98685.41;6340462;22;20021;-53
2021/10/04 03:40:33;;;;;;;0.10;0.10;;;;;;;9.57;100.00;98688.19;6340140;22;20430;-53
2021/10/04 03:43:35;;;;;;;0.10;0.10;;;;;;;9.55;100.00;98691.44;6339628;22;20022;-53
2021/10/04 03:46:38;;;;;;;2.50;0.45;;;;;;;9.51;100.00;98690.94;6339413;22;20426;-53
2021/10/04 03:49:42;;;;;;;0.10;0.10;;;;;;;9.56;100.00;98692.22;6340075;22;20041;-53
2021/10/04 03:52:46;;;;;;;5.78;0.52;;;;;;;9.59;100.00;98689.22;6339659;22;20026;-53
2021/10/04 03:55:48;;;;;;;2.08;0.43;;;;;;;9.62;100.00;98684.66;6339325;22;20055;-53
2021/10/04 03:58:52;;;;;;;0.15;0.15;;;;;;;9.66;100.00;98685.19;6339400;22;20049;-53
2021/10/04 04:01:54;;;;;;;0.65;0.50;;;;;;;9.55;100.00;98685.16;6339343;22;20041;-53
2021/10/04 04:04:57;;;;;;;0.22;0.20;;;;;;;9.71;100.00;98684.47;6339470;22;20022;-53
2021/10/04 04:08:00;;;;;;;0.40;0.10;;;;;;;9.80;100.00;98675.91;6339706;22;20030;-53
2021/10/04 04:11:03;;;;;;;0.20;0.20;;;;;;;9.88;100.00;98668.63;6339634;22;20026;-53
2021/10/04 04:14:06;;;;;;;0.10;0.10;;;;;;;9.85;100.00;98680.75;6339945;22;20084;-53
2021/10/04 04:17:09;;;;;;;0.40;0.40;;;;;;;9.83;100.00;98677.72;6339353;22;20028;-53
2021/10/04 04:20:13;;;;;;;0.43;0.43;;;;;;;10.02;100.00;98678.81;6339593;22;20058;-53
2021/10/04 04:23:16;;;;;;;0.20;0.20;;;;;;;10.15;100.00;98678.34;6339405;22;20080;-54
2021/10/04 04:26:19;;;;;;;0.30;0.30;;;;;;;10.13;100.00;98678.09;6339540;22;20024;-53
2021/10/04 04:29:25;;;;;;;1.13;0.40;;;;;;;10.15;100.00;98676.34;6339319;22;20032;-53
2021/10/04 04:32:29;;;;;;;0.20;0.20;;;;;;;10.27;100.00;98672.31;6339378;22;20045;-53
2021/10/04 04:35:32;;;;;;;0.15;0.15;;;;;;;10.29;100.00;98674.59;6338983;22;20029;-53
2021/10/04 04:38:34;;;;;;;11.15;0.32;;;;;;;10.23;100.00;98680.16;6338866;22;20458;-54
2021/10/04 04:41:37;;;;;;;2.50;0.28;;;;;;;10.16;100.00;98683.41;6339190;22;20094;-53
2021/10/04 04:44:40;;;;;;;0.10;0.10;;;;;;;10.14;100.00;98685.16;6339007;22;20090;-53
2021/10/04 04:47:44;;;;;;;3.60;1.02;;;;;;;10.10;100.00;98681.84;6339556;22;20040;-53
2021/10/04 04:50:47;;;;;;;2.35;0.60;;;;;;;10.04;100.00;98683.84;6339505;22;20053;-53
2021/10/04 04:53:50;;;;;;;1.00;0.28;;;;;;;10.05;100.00;98675.00;6339228;22;20068;-53
2021/10/04 04:56:55;;;;;;;1.33;0.75;;;;;;;10.05;100.00;98686.13;6339299;22;20064;-53
2021/10/04 05:00:01;;;;;;;0.20;0.20;;;;;;;10.20;100.00;98692.28;6339141;22;20025;-53
2021/10/04 05:03:06;;;;;;;0.10;0.10;;;;;;;10.15;100.00;98693.03;6339320;22;20025;-53
2021/10/04 05:06:09;;;;;;;0.10;0.10;;;;;;;10.14;100.00;98697.06;6339095;22;20044;-53
2021/10/04 05:09:12;;;;;;;0.20;0.20;;;;;;;10.15;100.00;98693.03;6339316;22;20057;-53
2021/10/04 05:12:15;;;;;;;0.30;0.30;;;;;;;10.21;100.00;98702.16;6339254;22;20021;-53
2021/10/04 05:15:18;;;;;;;0.20;0.20;;;;;;;10.26;100.00;98698.63;6339216;22;20029;-53
2021/10/04 05:18:21;;;;;;;0.35;0.35;;;;;;;10.30;100.00;98701.16;6339033;22;20098;-53
2021/10/04 05:21:24;;;;;;;0.17;0.17;;;;;;;10.24;100.00;98701.16;6339203;22;20021;-54
2021/10/04 05:24:27;;;;;;;1.42;0.82;;;;;;;10.28;100.00;98701.69;6339206;22;20029;-53
2021/10/04 05:27:30;;;;;;;2.60;0.57;;;;;;;10.26;100.00;98707.00;6338854;22;20028;-53
2021/10/04 05:30:34;;;;;;;0.30;0.30;;;;;;;10.18;100.00;98707.97;6338922;22;20458;-53
2021/10/04 05:33:37;;;;;;;0.20;0.17;;;;;;;10.13;100.00;98706.69;6338850;22;20431;-53
2021/10/04 05:36:39;;;;;;;0.57;0.40;;;;;;;10.00;100.00;98702.81;6338434;22;20037;-53
2021/10/04 05:39:42;;;;;;;0.30;0.10;;;;;;;9.37;100.00;98702.22;6338549;22;20144;-53
2021/10/04 05:42:45;;;;;;;0.20;0.20;;;;;;;9.99;100.00;98696.47;6338833;22;20072;-53
2021/10/04 05:45:49;;;;;;;0.70;0.65;;;;;;;10.00;100.00;98692.44;6338716;22;20112;-53
2021/10/04 05:48:51;;;;;;;0.52;0.38;;;;;;;10.00;100.00;98691.69;6319631;22;20504;-53
2021/10/04 05:51:54;;;;;;;0.30;0.30;;;;;;;9.93;100.00;98696.47;6338726;22;20098;-53
2021/10/04 05:54:57;;;;;;;0.13;0.13;;;;;;;9.93;100.00;98687.34;6339103;22;20078;-53
2021/10/04 05:58:00;;;;;;;0.15;0.15;;;;;;;9.99;100.00;98696.47;6338881;22;20022;-53
2021/10/04 06:01:03;;;;;;;0.55;0.55;;;;;;;10.10;100.00;98702.09;6338739;22;20022;-53
2021/10/04 06:04:06;;;;;;;0.30;0.30;;;;;;;10.15;100.00;98715.28;6338516;22;20030;-53
2021/10/04 06:07:08;;;;;;;0.50;0.50;;;;;;;10.26;100.00;98720.13;6338454;22;20046;-53
2021/10/04 06:10:11;;;;;;;2.63;0.40;;;;;;;10.27;100.00;98727.97;6338590;22;20112;-53
2021/10/04 06:13:15;;;;;;;0.25;0.25;;;;;;;10.20;100.00;98722.88;6338815;22;20026;-53
2021/10/04 06:16:18;;;;;;;1.40;0.10;;;;;;;10.19;100.00;98726.94;6338120;22;20493;-53
2021/10/04 06:19:21;;;;;;;0.57;0.25;;;;;;;10.23;100.00;98726.69;6319132;22;20022;-53
2021/10/04 06:22:25;;;;;;;0.20;0.20;;;;;;;10.22;100.00;98741.88;6338409;22;20026;-53
2021/10/04 06:25:27;;;;;;;0.35;0.35;;;;;;;10.11;100.00;98731.47;6337168;22;20021;-53
2021/10/04 06:28:30;;;;;;;1.35;0.50;;;;;;;10.21;100.00;98729.22;6336722;22;20018;-53
2021/10/04 06:31:33;;;;;;;0.17;0.17;;;;;;;10.32;100.00;98732.81;6338535;22;20085;-53
2021/10/04 06:34:36;;;;;;;0.25;0.25;;;;;;;10.48;100.00;98731.34;6338371;22;20455;-49
2021/10/04 06:37:39;;;;;;;0.30;0.30;;;;;;;10.51;100.00;98728.31;6338693;22;20072;-49
2021/10/04 06:40:42;;;;;;;0.17;0.17;;;;;;;10.52;100.00;98729.84;6337996;22;20037;-49
2021/10/04 06:43:45;;;;;;;0.65;0.35;;;;;;;10.49;100.00;98732.84;6338429;22;20107;-49
2021/10/04 06:46:48;;;;;;;0.28;0.28;;;;;;;10.49;100.00;98733.59;6338088;22;20029;-49
2021/10/04 06:49:51;;;;;;;1.23;0.60;;;;;;;10.45;100.00;98738.66;6338898;22;20045;-49
2021/10/04 06:52:54;;;;;;;4.82;0.28;;;;;;;10.44;100.00;98737.13;6338347;22;20025;-49
2021/10/04 06:55:57;;;;;;;3.25;0.28;;;;;;;10.47;100.00;98741.72;6338845;22;20021;-49
2021/10/04 06:59:00;;;;;;;0.40;0.13;;;;;;;10.53;100.00;98744.50;6338255;22;20018;-49
2021/10/04 07:02:03;;;;;;;3.38;0.70;;;;;;;10.54;100.00;98740.47;6338406;22;20025;-49
2021/10/04 07:05:07;;;;;;;1.73;0.70;;;;;;;10.70;100.00;98731.38;6338095;22;20072;-49
2021/10/04 07:08:11;;;;;;;0.57;0.45;;;;;;;10.75;100.00;98741.00;6338177;22;20397;-49
2021/10/04 07:11:15;;;;;;;0.43;0.43;;;;;;;10.75;100.00;98743.78;6338023;22;20026;-49
2021/10/04 07:14:18;;;;;;;0.35;0.35;;;;;;;10.80;100.00;98751.41;6338448;22;20370;-49
2021/10/04 07:17:21;;;;;;;0.30;0.30;;;;;;;10.74;100.00;98745.06;6338336;22;20072;-49
2021/10/04 07:20:24;;;;;;;0.60;0.30;;;;;;;10.75;100.00;98752.13;6338210;22;20454;-50
2021/10/04 07:23:26;;;;;;;0.50;0.20;;;;;;;10.81;100.00;98758.47;6337852;22;20459;-49
2021/10/04 07:26:30;;;;;;;14.60;0.75;;;;;;;10.91;100.00;98752.19;6337872;22;20518;-49
2021/10/04 07:29:33;;;;;;;0.35;0.35;;;;;;;11.02;100.00;98751.44;6339139;22;20095;-54
2021/10/04 07:32:38;;;;;;;0.30;0.20;;;;;;;11.16;100.00;98761.56;6340250;22;20022;-54
2021/10/04 07:35:41;;;;;;;8.13;1.55;;;;;;;11.29;100.00;98750.66;6339997;22;20096;-53
2021/10/04 07:38:44;;;;;;;5.05;1.08;;;;;;;11.31;100.00;98750.91;6339914;22;20069;-53
2021/10/04 07:41:47;;;;;;;0.52;0.45;;;;;;;11.35;100.00;98751.41;6340028;22;20025;-53
2021/10/04 07:44:51;;;;;;;0.82;0.30;;;;;;;11.43;100.00;98752.44;6339837;22;20060;-53
2021/10/04 07:47:53;;;;;;;9.23;1.50;;;;;;;11.50;100.00;98751.91;6339743;22;20382;-53
2021/10/04 07:50:56;;;;;;;1.02;0.40;;;;;;;11.53;100.00;98756.47;6339978;22;20064;-54
2021/10/04 07:54:00;;;;;;;0.63;0.10;;;;;;;11.44;100.00;98759.53;6340065;22;20450;-53
2021/10/04 07:57:03;;;;;;;3.50;0.60;;;;;;;11.46;100.00;98757.00;6339914;22;20026;-53
2021/10/04 08:00:07;;;;;;;0.15;0.15;;;;;;;11.55;100.00;98753.19;6339726;22;20092;-53
2021/10/04 08:03:10;;;;;;;2.00;0.57;;;;;;;11.58;100.00;98758.50;6339623;22;20427;-53
2021/10/04 08:06:13;;;;;;;2.83;0.82;;;;;;;11.74;100.00;98770.91;6339370;22;20054;-53
2021/10/04 08:09:16;;;;;;;2.50;0.63;;;;;;;11.77;100.00;98770.69;6339684;22;20022;-53
2021/10/04 08:12:23;;;;;;;1.52;0.73;;;;;;;11.87;100.00;98780.28;6339461;22;20352;-53
2021/10/04 08:15:26;;;;;;;0.32;0.28;;;;;;;11.99;100.00;98781.81;6339368;22;20429;-53
2021/10/04 08:18:30;;;;;;;0.20;0.20;;;;;;;12.08;100.00;98778.72;6339410;22;20052;-53
2021/10/04 08:21:33;;;;;;;15.75;0.63;;;;;;;12.06;100.00;98786.84;6339395;22;20025;-53
2021/10/04 08:24:36;;;;;;;1.45;0.50;;;;;;;12.08;100.00;98775.91;6338952;22;20098;-53
2021/10/04 08:27:39;;;;;;;9.57;0.63;;;;;;;12.12;100.00;98773.66;6338918;22;20397;-53
2021/10/04 08:30:42;;;;;;;3.03;0.60;;;;;;;12.25;100.00;98777.91;6339491;22;20056;-53
2021/10/04 08:33:45;;;;;;;3.30;0.35;;;;;;;12.36;100.00;98784.22;6339558;22;20026;-53
2021/10/04 08:36:48;;;;;;;3.70;0.30;;;;;;;12.34;100.00;98783.97;6339927;22;20034;-53
2021/10/04 08:39:50;;;;;;;0.45;0.45;;;;;;;12.42;100.00;98784.94;6338456;22;20022;-53
2021/10/04 08:42:53;;;;;;;0.30;0.30;;;;;;;12.43;100.00;98780.13;6339440;22;20076;-53
2021/10/04 08:46:00;;;;;;;1.95;0.85;;;;;;;12.48;100.00;98779.31;6339151;22;20022;-54
2021/10/04 08:49:03;;;;;;;0.30;0.30;;;;;;;12.55;100.00;98787.16;6339526;22;20453;-54
2021/10/04 08:52:06;;;;;;;2.25;0.43;;;;;;;12.56;100.00;98783.13;6338677;22;20025;-52
2021/10/04 08:55:10;;;;;;;0.95;0.52;;;;;;;12.60;100.00;98783.59;6339341;22;20076;-52
2021/10/04 08:58:13;;;;;;;8.30;0.73;;;;;;;12.62;100.00;98790.19;6339015;22;20021;-52
2021/10/04 09:01:21;;;;;;;4.22;0.75;;;;;;;12.70;100.00;98787.59;6339567;22;20361;-52
2021/10/04 09:04:24;;;;;;;8.00;0.70;;;;;;;12.97;100.00;98783.13;6338735;22;20086;-52
2021/10/04 09:07:46;;;;;;;0.95;0.45;;;;;;;13.28;100.00;98791.06;6338702;22;20443;-52
2021/10/04 09:10:55;;;;;;;0.50;0.47;;;;;;;13.52;100.00;98791.91;6338776;22;20018;-52
2021/10/04 09:14:22;;;;;;;0.28;0.28;;;;;;;13.75;100.00;98795.28;6339398;22;20020;-52
2021/10/04 09:17:37;;;;;;;2.05;0.30;;;;;;;13.89;100.00;98796.91;6338755;22;20492;-53
2021/10/04 09:20:50;;;;;;;2.42;0.68;;;;;;;14.01;100.00;98800.34;6319773;22;20025;-52
2021/10/04 09:23:56;;;;;;;0.52;0.25;;;;;;;14.06;100.00;98802.31;6338658;22;20098;-52
2021/10/04 09:26:59;;;;;;;2.83;0.30;;;;;;;14.02;100.00;98804.66;6338135;22;20356;-53
2021/10/04 09:30:10;;;;;;;3.03;0.63;;;;;;;13.94;100.00;98804.50;6338937;22;20072;-53
2021/10/04 09:33:14;;;;;;;0.17;0.17;;;;;;;13.98;100.00;98801.41;6338881;22;20044;-53
2021/10/04 09:36:18;;;;;;;9.80;0.90;;;;;;;14.20;100.00;98812.38;6338573;22;20446;-55
2021/10/04 09:39:25;;;;;;;2.03;0.45;;;;;;;14.34;100.00;98811.97;6338606;22;20045;-55
2021/10/04 09:42:28;;;;;;;0.75;0.45;;;;;;;14.38;100.00;98811.66;6338812;22;20041;-53
2021/10/04 09:45:33;;;;;;;0.65;0.10;;;;;;;14.26;100.00;98808.22;6338690;22;20045;-53
2021/10/04 09:48:36;;;;;;;8.80;0.93;;;;;;;14.33;100.00;98809.72;6338973;22;20022;-53
2021/10/04 09:51:52;;;;;;;0.13;0.13;;;;;;;14.37;100.00;98807.38;6337719;22;20068;-54
2021/10/04 09:54:55;;;;;;;0.77;0.20;;;;;;;14.40;100.00;98809.84;6338811;22;20458;-53
2021/10/04 09:58:03;;;;;;;0.82;0.20;;;;;;;14.42;100.00;98804.50;6338742;22;20108;-53
2021/10/04 10:01:06;;;;;;;1.40;0.35;;;;;;;14.35;100.00;98815.53;6301971;22;20113;-53
2021/10/04 10:04:10;;;;;;;0.88;0.30;;;;;;;14.38;100.00;98814.47;6338260;22;20048;-53
2021/10/04 10:07:13;;;;;;;1.40;0.50;;;;;;;14.46;100.00;98807.00;6338435;22;20030;-53
2021/10/04 10:10:17;;;;;;;4.03;0.25;;;;;;;14.73;100.00;98808.69;6338682;22;20018;-52
2021/10/04 10:13:23;;;;;;;6.63;0.60;;;;;;;14.73;100.00;98814.31;6338890;22;20029;-53
2021/10/04 10:16:37;;;;;;;4.15;0.98;;;;;;;14.82;100.00;98822.34;6336939;22;20061;-53
2021/10/04 10:19:42;;;;;;;0.20;0.17;;;;;;;15.01;100.00;98823.09;6337501;22;20331;-53
2021/10/04 10:22:50;;;;;;;4.78;0.20;;;;;;;15.32;100.00;98829.28;6337854;22;20029;-53
2021/10/04 10:25:52;;;;;;;0.13;0.13;;;;;;;15.44;100.00;98817.38;6337868;22;20025;-53
2021/10/04 10:29:16;;;;;;;0.63;0.00;;;;;;;15.35;100.00;98817.00;6337635;22;20021;-53
2021/10/04 10:32:20;;;;;;;0.98;0.43;;;;;;;15.45;100.00;98821.72;6338776;22;20075;-53
2021/10/04 10:35:46;;;;;;;0.90;0.15;;;;;;;15.50;100.00;98823.69;6338852;22;20430;-53
2021/10/04 10:38:57;;;;;;;2.63;1.05;;;;;;;15.67;100.00;98820.59;6337926;22;20042;-53
2021/10/04 10:42:20;;;;;;;2.33;0.37;;;;;;;15.97;100.00;98820.34;6338025;22;20025;-53
2021/10/04 10:45:23;;;;;;;6.45;0.57;;;;;;;16.04;100.00;98826.09;6338771;22;20068;-53
2021/10/04 10:48:41;;;;;;;1.75;0.57;;;;;;;15.97;100.00;98821.09;6338703;22;20061;-53
2021/10/04 10:52:16;;;;;;;2.67;0.30;;;;;;;15.74;100.00;98831.22;6338415;22;20044;-52
2021/10/04 10:55:19;;;;;;;4.40;0.93;;;;;;;15.58;100.00;98824.56;6338834;22;20112;-52
2021/10/04 10:58:24;;;;;;;1.52;0.50;;;;;;;15.73;100.00;98824.06;6338605;22;20496;-53
2021/10/04 11:01:33;;;;;;;11.20;0.32;;;;;;;15.85;100.00;98825.41;6338648;22;20112;-51
2021/10/04 11:04:40;;;;;;;8.00;0.50;;;;;;;16.03;100.00;98818.19;6339819;22;20393;-52
2021/10/04 11:08:23;;;;;;;5.28;0.43;;;;;;;15.81;100.00;98813.72;6340247;22;20466;-51
2021/10/04 11:11:28;;;;;;;1.48;0.73;;;;;;;15.61;100.00;98822.75;6340264;22;20026;-51
2021/10/04 11:14:57;;;;;;;2.28;0.20;;;;;;;15.34;100.00;98832.31;6321691;22;20469;-51
2021/10/04 11:18:00;;;;;;;0.47;0.28;;;;;;;15.07;100.00;98820.97;6340094;22;20104;-52
2021/10/04 11:21:06;;;;;;;0.38;0.32;;;;;;;14.91;100.00;98829.63;6340439;22;20022;-51
2021/10/04 11:24:10;;;;;;;0.43;0.15;;;;;;;14.94;100.00;98823.69;6340334;22;20513;-51
2021/10/04 11:27:14;;;;;;;3.40;0.57;;;;;;;14.81;100.00;98820.81;6340114;22;20480;-52
2021/10/04 11:30:17;;;;;;;0.35;0.10;;;;;;;14.79;100.00;98829.00;6339785;22;20378;-53
2021/10/04 11:33:20;;;;;;;1.35;0.40;;;;;;;14.88;100.00;98830.66;6339450;22;20516;-54
2021/10/04 11:36:28;;;;;;;0.60;0.30;;;;;;;14.83;100.00;98821.06;6339712;22;20040;-53
2021/10/04 11:39:34;;;;;;;0.73;0.35;;;;;;;14.89;100.00;98818.94;6339055;22;20026;-53
2021/10/04 11:42:38;;;;;;;1.67;0.70;;;;;;;14.99;100.00;98808.84;6339538;22;20026;-53
2021/10/04 11:45:41;;;;;;;0.73;0.30;;;;;;;15.40;100.00;98824.59;6339545;22;20094;-53
2021/10/04 11:48:46;;;;;;;0.22;0.10;;;;;;;15.60;100.00;98812.78;6339918;22;20022;-55
2021/10/04 11:51:52;;;;;;;4.70;0.52;;;;;;;15.56;100.00;98810.31;6320589;22;20502;-53
2021/10/04 11:54:56;;;;;;;0.50;0.30;;;;;;;15.55;100.00;98805.97;6339492;22;20045;-53
2021/10/04 11:58:10;;;;;;;0.30;0.10;;;;;;;15.69;100.00;98807.56;6339805;22;20098;-53
2021/10/04 12:01:13;;;;;;;0.50;0.50;;;;;;;15.72;100.00;98823.31;6339708;22;20445;-53
2021/10/04 12:04:16;;;;;;;0.30;0.30;;;;;;;15.78;100.00;98821.19;6339465;22;20037;-56
2021/10/04 12:07:21;;;;;;;0.43;0.20;;;;;;;15.89;100.00;98820.22;6338864;22;20508;-53
2021/10/04 12:10:24;;;;;;;0.30;0.15;;;;;;;15.88;100.00;98821.50;6339275;22;20022;-53
2021/10/04 12:13:37;;;;;;;1.75;0.38;;;;;;;15.63;100.00;98820.94;6339361;22;20067;-53
2021/10/04 12:16:40;;;;;;;1.63;0.55;;;;;;;15.52;100.00;98814.72;6338968;22;20083;-53
2021/10/04 12:19:44;;;;;;;0.10;0.10;;;;;;;15.54;100.00;98817.75;6339205;22;20025;-53
2021/10/04 12:22:48;;;;;;;0.57;0.20;;;;;;;15.65;100.00;98821.16;6339392;22;20107;-53
2021/10/04 12:25:53;;;;;;;6.57;0.82;;;;;;;15.72;100.00;98816.94;6338980;22;20045;-53
2021/10/04 12:28:56;;;;;;;0.28;0.20;;;;;;;15.64;100.00;98811.19;6339550;22;20067;-53
2021/10/04 12:32:21;;;;;;;0.20;0.10;;;;;;;15.81;100.00;98805.28;6339231;22;20036;-53
2021/10/04 12:35:26;;;;;;;0.55;0.10;;;;;;;15.85;100.00;98803.69;6339108;22;20018;-53
2021/10/04 12:38:32;;;;;;;5.93;0.30;;;;;;;15.76;100.00;98800.53;6339329;22;20125;-53
2021/10/04 12:41:43;;;;;;;0.65;0.50;;;;;;;15.67;100.00;98793.28;6338957;22;20044;-53
2021/10/04 12:44:47;;;;;;;5.25;0.10;;;;;;;15.53;100.00;98785.34;6338843;22;20091;-53
2021/10/04 12:48:12;;;;;;;8.15;0.40;;;;;;;15.56;100.00;98787.09;6338949;22;20347;-53
2021/10/04 12:51:25;;;;;;;0.32;0.17;;;;;;;15.96;100.00;98774.63;6339092;22;20033;-53
2021/10/04 12:54:34;;;;;;;3.03;0.65;;;;;;;16.46;100.00;98776.47;6338736;22;20068;-53
2021/10/04 12:57:36;;;;;;;13.48;0.50;;;;;;;16.83;100.00;98775.50;6338816;22;20022;-54
2021/10/04 13:00:39;;;;;;;4.93;0.50;;;;;;;16.81;100.00;98772.44;6339103;22;20021;-54
2021/10/04 13:04:09;;;;;;;2.00;0.70;;;;;;;16.67;100.00;98775.28;6339242;22;20037;-54
2021/10/04 13:07:12;;;;;;;0.65;0.35;;;;;;;16.58;100.00;98778.56;6338483;22;20051;-54
2021/10/04 13:10:15;;;;;;;2.60;0.32;;;;;;;16.49;100.00;98781.78;6338772;22;20018;-54
2021/10/04 13:13:18;;;;;;;6.25;1.02;;;;;;;16.35;100.00;98783.09;6338026;22;20049;-52
2021/10/04 13:16:23;;;;;;;3.42;0.30;;;;;;;16.31;100.00;98784.69;6337399;22;20470;-54
2021/10/04 13:19:26;;;;;;;3.30;0.10;;;;;;;16.30;100.00;98786.78;6338107;22;20061;-52
2021/10/04 13:22:29;;;;;;;1.50;0.13;;;;;;;16.29;100.00;98779.63;6338577;22;20069;-52
2021/10/04 13:25:32;;;;;;;1.33;0.47;;;;;;;16.28;100.00;98788.59;6339081;22;20075;-52
2021/10/04 13:28:36;;;;;;;0.95;0.28;;;;;;;16.32;100.00;98784.19;6338815;22;20071;-53
2021/10/04 13:31:39;;;;;;;7.60;0.68;;;;;;;16.21;100.00;98784.41;6338882;22;20097;-53
2021/10/04 13:34:42;;;;;;;1.58;0.30;;;;;;;16.03;100.00;98790.84;6338563;22;20390;-52
2021/10/04 13:37:45;;;;;;;1.13;0.65;;;;;;;15.78;100.00;98789.53;6339001;22;20026;-53
2021/10/04 13:40:48;;;;;;;1.30;0.45;;;;;;;15.49;100.00;98794.09;6338573;22;20375;-54
2021/10/04 13:43:51;;;;;;;0.77;0.40;;;;;;;15.32;100.00;98804.03;6338588;22;20057;-54
2021/10/04 13:46:54;;;;;;;1.95;0.40;;;;;;;15.38;100.00;98793.47;6338651;22;20026;-53
2021/10/04 13:49:57;;;;;;;2.17;0.40;;;;;;;15.49;100.00;98810.94;6339111;22;20021;-56
2021/10/04 13:53:00;;;;;;;0.65;0.32;;;;;;;15.45;100.00;98824.53;6319663;22;20101;-54
2021/10/04 13:56:05;;;;;;;0.63;0.20;;;;;;;15.32;100.00;98818.06;6338619;22;20044;-54
2021/10/04 13:59:10;;;;;;;0.20;0.20;;;;;;;15.20;100.00;98807.00;6337710;22;20095;-54
2021/10/04 14:02:14;;;;;;;2.70;0.57;;;;;;;15.16;100.00;98800.94;6338624;22;20132;-53
2021/10/04 14:05:17;;;;;;;0.65;0.15;;;;;;;15.19;100.00;98802.69;6338391;22;20021;-54
2021/10/04 14:08:21;;;;;;;1.13;0.30;;;;;;;15.34;100.00;98793.03;6338214;22;20124;-53
2021/10/04 14:11:24;;;;;;;2.22;0.88;;;;;;;15.43;100.00;98795.44;6338234;22;20053;-53
2021/10/04 14:14:27;;;;;;;2.05;0.35;;;;;;;15.36;100.00;98812.91;6334058;22;20063;-53
2021/10/04 14:17:30;;;;;;;1.25;0.40;;;;;;;15.25;100.00;98811.03;6335736;22;20048;-54
2021/10/04 14:20:33;;;;;;;3.20;0.30;;;;;;;15.24;100.00;98811.56;6336382;22;20503;-53